createdAt,value
2022-11-30T00:01:32.562Z,99065.72
2022-11-30T00:04:00.193Z,99068.56
2022-11-30T00:06:27.922Z,99060.75
2022-11-30T00:08:59.134Z,99062.25
2022-11-30T00:11:28.845Z,99062.50
2022-11-30T00:13:56.681Z,99061.22
2022-11-30T00:16:24.325Z,99063.81
2022-11-30T00:18:52.150Z,99058.19
2022-11-30T00:21:20.254Z,99051.41
2022-11-30T00:23:48.674Z,99049.28
2022-11-30T00:26:19.601Z,99054.44
2022-11-30T00:28:47.821Z,99061.44
2022-11-30T00:31:18.268Z,99061.94
2022-11-30T00:33:46.145Z,99059.31
2022-11-30T00:36:17.691Z,99059.19
2022-11-30T00:38:46.013Z,99059.19
2022-11-30T00:41:14.221Z,99059.19
2022-11-30T00:43:42.035Z,99060.06
2022-11-30T00:46:10.711Z,99060.91
2022-11-30T00:48:40.496Z,99055.22
2022-11-30T00:51:10.571Z,99064.00
2022-11-30T00:53:39.051Z,99058.75
2022-11-30T00:56:08.631Z,99051.97
2022-11-30T00:58:36.475Z,99062.25
2022-11-30T01:01:04.709Z,99055.03
2022-11-30T01:03:33.530Z,99063.19
2022-11-30T01:06:07.516Z,99063.03
2022-11-30T01:08:35.401Z,99069.38
2022-11-30T01:11:33.288Z,99066.97
2022-11-30T01:14:02.345Z,99068.25
2022-11-30T01:16:32.769Z,99059.00
2022-11-30T01:19:00.874Z,99070.38
2022-11-30T01:21:29.805Z,99074.50
2022-11-30T01:23:57.699Z,99069.72
2022-11-30T01:26:25.799Z,99068.09
2022-11-30T01:28:55.181Z,99073.22
2022-11-30T01:31:24.809Z,99079.38
2022-11-30T01:33:55.073Z,99079.22
2022-11-30T01:36:27.094Z,99079.03
2022-11-30T01:38:57.519Z,99082.00
2022-11-30T01:41:33.154Z,99082.06
2022-11-30T01:44:06.843Z,99083.75
2022-11-30T01:46:46.156Z,99084.06
2022-11-30T01:49:43.694Z,99081.13
2022-11-30T01:52:25.472Z,99083.41
2022-11-30T01:55:08.770Z,99083.09
2022-11-30T01:57:51.639Z,99077.41
2022-11-30T02:00:20.098Z,99075.75
2022-11-30T02:02:47.616Z,99079.38
2022-11-30T02:05:18.410Z,99077.28
2022-11-30T02:07:46.604Z,99080.81
2022-11-30T02:10:27.517Z,99085.16
2022-11-30T02:13:25.998Z,99080.66
2022-11-30T02:16:29.662Z,99084.63
2022-11-30T02:19:35.353Z,99086.03
2022-11-30T02:22:36.767Z,99089.97
2022-11-30T02:25:19.287Z,99088.69
2022-11-30T02:28:02.592Z,99097.47
2022-11-30T02:30:35.036Z,99091.63
2022-11-30T02:33:11.345Z,99086.28
2022-11-30T02:35:44.530Z,99084.53
2022-11-30T02:38:13.312Z,99088.63
2022-11-30T02:40:40.922Z,99092.44
2022-11-30T02:43:08.587Z,99090.44
2022-11-30T02:46:31.559Z,99086.72
2022-11-30T02:49:40.534Z,99094.22
2022-11-30T02:52:10.619Z,99091.00
2022-11-30T02:54:39.422Z,99092.88
2022-11-30T02:57:07.136Z,99083.66
2022-11-30T02:59:35.044Z,99091.53
2022-11-30T03:02:02.597Z,99086.91
2022-11-30T03:04:30.196Z,99086.81
2022-11-30T03:06:57.829Z,99090.28
2022-11-30T03:09:25.936Z,99095.97
2022-11-30T03:11:53.479Z,99090.72
2022-11-30T03:14:21.215Z,99090.81
2022-11-30T03:16:48.826Z,99099.91
2022-11-30T03:19:16.461Z,99101.56
2022-11-30T03:21:44.201Z,99101.56
2022-11-30T03:24:11.746Z,99104.25
2022-11-30T03:26:39.367Z,99104.97
2022-11-30T03:29:07.201Z,99107.50
2022-11-30T03:31:35.116Z,99108.53
2022-11-30T03:34:02.826Z,99114.63
2022-11-30T03:36:30.371Z,99112.00
2022-11-30T03:38:58.103Z,99106.19
2022-11-30T03:41:25.803Z,99108.81
2022-11-30T03:43:53.507Z,99108.69
2022-11-30T03:46:21.730Z,99104.00
2022-11-30T03:48:52.527Z,99104.25
2022-11-30T03:51:20.289Z,99113.44
2022-11-30T03:53:47.854Z,99104.44
2022-11-30T03:56:15.662Z,99108.19
2022-11-30T03:58:43.565Z,99097.84
2022-11-30T04:01:14.837Z,99105.28
2022-11-30T04:03:43.498Z,99103.69
2022-11-30T04:06:12.836Z,99104.09
2022-11-30T04:08:41.429Z,99099.28
2022-11-30T04:11:10.727Z,99108.91
2022-11-30T04:13:40.152Z,99104.34
2022-11-30T04:16:09.199Z,99104.75
2022-11-30T04:18:38.485Z,99112.41
2022-11-30T04:21:07.940Z,99111.78
2022-11-30T04:23:39.442Z,99107.84
2022-11-30T04:26:11.624Z,99102.75
2022-11-30T04:28:39.728Z,99116.53
2022-11-30T04:31:08.241Z,99114.69
2022-11-30T04:33:36.292Z,99106.00
2022-11-30T04:36:07.608Z,99111.88
2022-11-30T04:38:36.320Z,99111.66
2022-11-30T04:41:08.783Z,99112.50
2022-11-30T04:43:37.306Z,99110.53
2022-11-30T04:46:06.349Z,99119.06
2022-11-30T04:48:34.456Z,99106.34
2022-11-30T04:51:08.891Z,99104.50
2022-11-30T04:53:38.335Z,99110.97
2022-11-30T04:56:09.066Z,99114.41
2022-11-30T04:58:38.785Z,99109.81
2022-11-30T05:01:07.410Z,99108.00
2022-11-30T05:03:35.461Z,99108.69
2022-11-30T05:06:03.770Z,99107.66
2022-11-30T05:08:31.662Z,99105.97
2022-11-30T05:11:00.026Z,99116.13
2022-11-30T05:13:27.956Z,99108.00
2022-11-30T05:15:55.823Z,99106.88
2022-11-30T05:18:23.632Z,99118.50
2022-11-30T05:20:52.906Z,99125.88
2022-11-30T05:23:21.118Z,99117.78
2022-11-30T05:25:49.388Z,99124.13
2022-11-30T05:28:17.201Z,99125.06
2022-11-30T05:30:45.094Z,99120.38
2022-11-30T05:33:13.079Z,99121.19
2022-11-30T05:35:40.821Z,99119.44
2022-11-30T05:38:08.571Z,99115.13
2022-11-30T05:40:36.226Z,99117.88
2022-11-30T05:43:04.816Z,99127.69
2022-11-30T05:45:32.643Z,99129.72
2022-11-30T05:48:06.098Z,99127.44
2022-11-30T05:50:33.833Z,99135.41
2022-11-30T05:53:01.637Z,99136.34
2022-11-30T05:55:31.054Z,99129.88
2022-11-30T05:58:04.572Z,99130.81
2022-11-30T06:00:32.276Z,99129.22
2022-11-30T06:03:00.336Z,99138.03
2022-11-30T06:05:28.565Z,99138.91
2022-11-30T06:07:59.260Z,99130.69
2022-11-30T06:10:27.374Z,99134.31
2022-11-30T06:12:55.153Z,99127.03
2022-11-30T06:15:22.878Z,99132.41
2022-11-30T06:17:50.488Z,99128.94
2022-11-30T06:20:18.161Z,99128.88
2022-11-30T06:22:47.230Z,99126.09
2022-11-30T06:25:15.017Z,99133.22
2022-11-30T06:27:43.579Z,99124.34
2022-11-30T06:30:12.396Z,99129.09
2022-11-30T06:32:39.956Z,99127.63
2022-11-30T06:35:08.081Z,99130.13
2022-11-30T06:37:36.023Z,99126.16
2022-11-30T06:40:07.282Z,99129.66
2022-11-30T06:42:36.810Z,99131.38
2022-11-30T06:45:07.006Z,99131.09
2022-11-30T06:47:35.086Z,99131.97
2022-11-30T06:50:09.243Z,99134.59
2022-11-30T06:52:39.234Z,99138.09
2022-11-30T06:55:07.987Z,99132.72
2022-11-30T06:57:35.518Z,99139.09
2022-11-30T07:00:04.441Z,99150.88
2022-11-30T07:02:32.056Z,99152.06
2022-11-30T07:04:59.620Z,99153.41
2022-11-30T07:07:30.488Z,99153.22
2022-11-30T07:10:03.429Z,99157.00
2022-11-30T07:12:31.118Z,99162.84
2022-11-30T07:14:58.703Z,99163.16
2022-11-30T07:17:26.335Z,99162.72
2022-11-30T07:19:54.241Z,99162.63
2022-11-30T07:22:21.975Z,99165.78
2022-11-30T07:25:08.441Z,99159.72
2022-11-30T07:27:36.087Z,99164.97
2022-11-30T07:30:04.447Z,99161.78
2022-11-30T07:32:32.055Z,99165.09
2022-11-30T07:34:59.919Z,99164.66
2022-11-30T07:37:27.920Z,99157.53
2022-11-30T07:39:55.991Z,99158.78
2022-11-30T07:42:23.606Z,99156.16
2022-11-30T07:44:58.078Z,99153.19
2022-11-30T07:47:27.713Z,99152.66
2022-11-30T07:49:55.321Z,99158.00
2022-11-30T07:52:22.962Z,99152.94
2022-11-30T07:54:50.787Z,99153.81
2022-11-30T07:57:18.648Z,99160.72
2022-11-30T07:59:46.589Z,99159.78
2022-11-30T08:02:14.443Z,99167.75
2022-11-30T08:04:42.211Z,99170.19
2022-11-30T08:07:10.079Z,99171.28
2022-11-30T08:09:45.165Z,99170.66
2022-11-30T08:12:12.717Z,99174.16
2022-11-30T08:15:11.107Z,99174.91
2022-11-30T08:17:28.004Z,99176.69
2022-11-30T08:19:55.572Z,99171.53
2022-11-30T08:22:23.188Z,99178.00
2022-11-30T08:24:50.991Z,99167.81
2022-11-30T08:27:19.838Z,99178.22
2022-11-30T08:29:47.538Z,99170.66
2022-11-30T08:32:15.390Z,99173.53
2022-11-30T08:34:42.938Z,99175.28
2022-11-30T08:37:10.768Z,99179.38
2022-11-30T08:39:38.953Z,99182.44
2022-11-30T08:42:06.582Z,99178.72
2022-11-30T08:44:34.248Z,99179.56
2022-11-30T08:47:01.901Z,99174.19
2022-11-30T08:49:30.877Z,99182.09
2022-11-30T08:54:48.197Z,99190.88
2022-11-30T08:57:19.568Z,99204.59
2022-11-30T08:59:48.124Z,99206.94
2022-11-30T09:02:19.532Z,99207.84
2022-11-30T09:04:51.051Z,99207.63
2022-11-30T09:07:25.277Z,99211.00
2022-11-30T09:09:53.313Z,99212.34
2022-11-30T09:12:21.232Z,99204.94
2022-11-30T09:14:55.846Z,99214.94
2022-11-30T09:17:25.194Z,99203.13
2022-11-30T09:19:52.883Z,99208.31
2022-11-30T09:22:20.540Z,99215.13
2022-11-30T09:24:48.367Z,99209.75
2022-11-30T09:27:16.364Z,99206.00
2022-11-30T09:29:44.186Z,99204.78
2022-11-30T09:32:11.751Z,99205.44
2022-11-30T09:34:39.493Z,99201.41
2022-11-30T09:37:07.641Z,99205.25
2022-11-30T09:39:35.731Z,99199.16
2022-11-30T09:42:43.790Z,99203.13
2022-11-30T09:45:28.660Z,99207.13
2022-11-30T09:48:23.614Z,99207.06
2022-11-30T09:50:52.255Z,99204.47
2022-11-30T09:53:38.991Z,99195.69
2022-11-30T09:56:32.810Z,99201.81
2022-11-30T09:59:16.326Z,99206.47
2022-11-30T10:01:46.211Z,99196.94
2022-11-30T10:04:29.433Z,99193.47
2022-11-30T10:07:27.927Z,99197.34
2022-11-30T10:10:34.738Z,99190.84
2022-11-30T10:13:23.874Z,99193.59
2022-11-30T10:16:07.375Z,99198.09
2022-11-30T10:19:05.727Z,99194.38
2022-11-30T10:22:01.147Z,99191.72
2022-11-30T10:25:12.062Z,99200.03
2022-11-30T10:27:56.022Z,99198.31
2022-11-30T10:30:29.323Z,99203.88
2022-11-30T10:33:05.400Z,99199.09
2022-11-30T10:35:41.182Z,99200.19
2022-11-30T10:38:53.166Z,99191.94
2022-11-30T10:41:42.209Z,99194.63
2022-11-30T10:44:23.465Z,99189.53
2022-11-30T10:47:05.244Z,99187.81
2022-11-30T10:49:35.698Z,99191.34
2022-11-30T10:52:35.570Z,99191.44
2022-11-30T10:55:15.384Z,99185.28
2022-11-30T10:57:43.584Z,99181.25
2022-11-30T11:00:18.687Z,99174.91
2022-11-30T11:02:48.931Z,99178.34
2022-11-30T11:05:30.958Z,99174.81
2022-11-30T11:08:25.112Z,99177.72
2022-11-30T11:10:52.901Z,99174.56
2022-11-30T11:13:37.732Z,99178.44
2022-11-30T11:16:09.017Z,99177.06
2022-11-30T11:18:57.197Z,99177.91
2022-11-30T11:21:25.090Z,99170.34
2022-11-30T11:23:56.836Z,99182.09
2022-11-30T11:26:28.510Z,99172.94
2022-11-30T11:29:00.979Z,99172.75
2022-11-30T11:31:46.496Z,99171.72
2022-11-30T11:34:32.750Z,99164.84
2022-11-30T11:37:23.319Z,99174.03
2022-11-30T11:40:12.084Z,99179.56
2022-11-30T11:42:49.446Z,99173.53
2022-11-30T11:45:26.125Z,99182.25
2022-11-30T11:48:01.357Z,99175.41
2022-11-30T11:51:05.704Z,99174.28
2022-11-30T11:53:52.933Z,99181.31
2022-11-30T11:56:37.051Z,99171.78
2022-11-30T11:59:10.999Z,99171.44
2022-11-30T12:02:13.965Z,99159.44
2022-11-30T12:04:54.441Z,99167.50
2022-11-30T12:07:35.129Z,99167.84
2022-11-30T12:10:49.899Z,99167.59
2022-11-30T12:13:19.074Z,99164.09
2022-11-30T12:16:11.753Z,99161.06
2022-11-30T12:19:00.373Z,99165.34
2022-11-30T12:21:52.288Z,99159.00
2022-11-30T12:24:42.540Z,99164.03
2022-11-30T12:27:22.135Z,99170.38
2022-11-30T12:30:22.337Z,99165.38
2022-11-30T12:33:25.409Z,99165.09
2022-11-30T12:36:11.108Z,99163.72
2022-11-30T12:39:00.640Z,99163.72
2022-11-30T12:41:51.588Z,99150.50
2022-11-30T12:44:46.749Z,99153.78
2022-11-30T12:47:58.295Z,99162.72
2022-11-30T12:50:46.624Z,99156.72
2022-11-30T12:53:24.442Z,99161.88
2022-11-30T12:56:10.971Z,99165.38
2022-11-30T12:58:47.807Z,99160.13
2022-11-30T13:02:13.093Z,99164.22
2022-11-30T13:04:58.081Z,99162.06
2022-11-30T13:08:06.141Z,99160.00
2022-11-30T13:10:47.037Z,99160.81
2022-11-30T13:13:19.664Z,99160.56
2022-11-30T13:15:49.147Z,99159.38
2022-11-30T13:18:23.344Z,99160.09
2022-11-30T13:21:09.994Z,99165.09
2022-11-30T13:23:54.540Z,99167.22
2022-11-30T13:26:52.230Z,99155.81
2022-11-30T13:30:11.062Z,99159.38
2022-11-30T13:35:29.342Z,99163.41
2022-11-30T13:38:35.108Z,99168.16
2022-11-30T13:41:20.585Z,99174.88
2022-11-30T13:43:48.621Z,99176.06
2022-11-30T13:46:21.059Z,99165.63
2022-11-30T13:48:50.053Z,99173.13
2022-11-30T13:51:40.287Z,99168.41
2022-11-30T13:54:45.067Z,99163.28
2022-11-30T13:57:25.211Z,99170.97
2022-11-30T13:59:54.532Z,99165.88
2022-11-30T14:02:36.435Z,99160.44
2022-11-30T14:05:23.007Z,99165.53
2022-11-30T14:07:51.331Z,99167.78
2022-11-30T14:10:29.504Z,99160.34
2022-11-30T14:13:09.350Z,99165.34
2022-11-30T14:15:40.874Z,99170.97
2022-11-30T14:18:08.554Z,99181.72
2022-11-30T14:21:03.655Z,99179.19
2022-11-30T14:24:03.963Z,99179.28
2022-11-30T14:26:48.166Z,99182.16
2022-11-30T14:29:53.247Z,99177.66
2022-11-30T14:32:39.177Z,99184.78
2022-11-30T14:35:14.656Z,99175.19
2022-11-30T14:37:46.630Z,99175.41
2022-11-30T14:40:20.598Z,99177.41
2022-11-30T14:43:02.759Z,99175.06
2022-11-30T14:45:34.631Z,99177.75
2022-11-30T14:48:13.764Z,99176.38
2022-11-30T14:50:50.488Z,99172.59
2022-11-30T14:53:53.536Z,99175.97
2022-11-30T14:56:39.534Z,99172.19
2022-11-30T14:59:41.416Z,99178.44
2022-11-30T15:02:34.203Z,99171.91
2022-11-30T15:05:06.845Z,99165.94
2022-11-30T15:07:36.623Z,99176.13
2022-11-30T15:10:33.095Z,99177.19
2022-11-30T15:13:02.672Z,99178.69
2022-11-30T15:15:31.272Z,99176.81
2022-11-30T15:18:14.034Z,99179.59
2022-11-30T15:21:17.282Z,99177.88
2022-11-30T15:23:50.962Z,99178.69
2022-11-30T15:26:55.584Z,99179.19
2022-11-30T15:29:32.054Z,99183.00
2022-11-30T15:32:02.644Z,99175.53
2022-11-30T15:34:56.034Z,99185.94
2022-11-30T15:37:39.195Z,99184.47
2022-11-30T15:40:10.615Z,99188.72
2022-11-30T15:42:40.633Z,99182.31
2022-11-30T15:45:35.263Z,99183.69
2022-11-30T15:48:03.785Z,99192.78
2022-11-30T15:50:37.592Z,99187.19
2022-11-30T15:53:32.020Z,99195.53
2022-11-30T15:56:09.063Z,99199.06
2022-11-30T15:58:46.035Z,99200.78
2022-11-30T16:01:22.207Z,99205.75
2022-11-30T16:03:56.179Z,99207.09
2022-11-30T16:06:38.555Z,99207.94
2022-11-30T16:09:32.460Z,99208.75
2022-11-30T16:12:01.784Z,99219.47
2022-11-30T16:14:29.534Z,99210.13
2022-11-30T16:16:57.481Z,99208.81
2022-11-30T16:19:25.280Z,99209.09
2022-11-30T16:21:53.222Z,99210.63
2022-11-30T16:24:22.304Z,99209.25
2022-11-30T16:26:51.446Z,99203.97
2022-11-30T16:29:20.222Z,99203.09
2022-11-30T16:31:47.992Z,99209.00
2022-11-30T16:34:15.661Z,99211.00
2022-11-30T16:37:10.564Z,99207.25
2022-11-30T16:39:38.246Z,99203.22
2022-11-30T16:42:06.025Z,99203.13
2022-11-30T16:44:33.628Z,99204.25
2022-11-30T16:47:01.275Z,99213.63
2022-11-30T16:49:28.920Z,99207.19
2022-11-30T16:51:56.559Z,99211.69
2022-11-30T16:54:24.347Z,99208.06
2022-11-30T16:56:51.967Z,99211.81
2022-11-30T16:59:19.667Z,99215.31
2022-11-30T17:01:53.319Z,99210.06
2022-11-30T17:04:24.463Z,99217.09
2022-11-30T17:06:58.712Z,99220.22
2022-11-30T17:09:30.420Z,99225.50
2022-11-30T17:11:58.241Z,99222.94
2022-11-30T17:14:25.907Z,99228.88
2022-11-30T17:16:53.581Z,99225.00
2022-11-30T17:19:21.989Z,99225.50
2022-11-30T17:21:50.828Z,99228.06
2022-11-30T17:24:18.451Z,99237.09
2022-11-30T17:26:46.147Z,99233.59
2022-11-30T17:29:13.768Z,99243.06
2022-11-30T17:31:41.383Z,99239.38
2022-11-30T17:34:09.013Z,99236.28
2022-11-30T17:36:36.603Z,99244.34
2022-11-30T17:39:08.885Z,99243.84
2022-11-30T17:41:37.833Z,99242.94
2022-11-30T17:44:05.441Z,99249.00
2022-11-30T17:46:33.021Z,99245.97
2022-11-30T17:49:01.691Z,99244.38
2022-11-30T17:51:29.767Z,99251.97
2022-11-30T17:53:58.330Z,99252.50
2022-11-30T17:56:26.282Z,99248.88
2022-11-30T17:58:54.008Z,99251.53
2022-11-30T18:01:26.694Z,99251.09
2022-11-30T18:03:55.771Z,99254.09
2022-11-30T18:06:23.748Z,99250.22
2022-11-30T18:09:17.146Z,99254.72
2022-11-30T18:11:44.880Z,99245.72
2022-11-30T18:14:12.556Z,99247.78
2022-11-30T18:16:40.182Z,99246.41
2022-11-30T18:19:12.062Z,99247.84
2022-11-30T18:21:41.934Z,99244.38
2022-11-30T18:24:12.057Z,99241.59
2022-11-30T18:26:40.625Z,99252.91
2022-11-30T18:29:09.907Z,99252.06
2022-11-30T18:31:37.584Z,99255.38
2022-11-30T18:34:07.174Z,99263.34
2022-11-30T18:36:35.222Z,99265.00
2022-11-30T18:39:02.937Z,99256.72
2022-11-30T18:41:30.629Z,99262.81
2022-11-30T18:43:58.825Z,99260.03
2022-11-30T18:46:27.094Z,99253.00
2022-11-30T18:48:55.261Z,99263.03
2022-11-30T18:51:29.403Z,99258.41
2022-11-30T18:54:06.876Z,99256.31
2022-11-30T18:56:37.440Z,99264.28
2022-11-30T18:59:38.070Z,99263.16
2022-11-30T19:02:06.286Z,99270.50
2022-11-30T19:04:33.976Z,99274.63
2022-11-30T19:07:01.577Z,99272.59
2022-11-30T19:09:29.253Z,99275.06
2022-11-30T19:11:58.008Z,99280.13
2022-11-30T19:14:25.597Z,99282.56
2022-11-30T19:16:53.332Z,99276.44
2022-11-30T19:19:21.980Z,99282.91
2022-11-30T19:21:49.744Z,99286.53
2022-11-30T19:24:18.213Z,99283.75
2022-11-30T19:26:45.969Z,99285.75
2022-11-30T19:29:13.730Z,99293.75
2022-11-30T19:31:41.362Z,99294.28
2022-11-30T19:34:12.559Z,99302.53
2022-11-30T19:36:40.988Z,99289.22
2022-11-30T19:39:09.821Z,99297.72
2022-11-30T19:41:37.706Z,99288.13
2022-11-30T19:44:05.732Z,99299.19
2022-11-30T19:46:34.635Z,99297.53
2022-11-30T19:49:02.543Z,99295.16
2022-11-30T19:51:31.799Z,99296.25
2022-11-30T19:54:00.075Z,99300.66
2022-11-30T19:56:30.103Z,99297.13
2022-11-30T19:59:04.095Z,99307.13
2022-11-30T20:01:33.995Z,99312.72
2022-11-30T20:04:02.625Z,99303.56
2022-11-30T20:06:34.665Z,99311.16
2022-11-30T20:09:05.081Z,99306.97
2022-11-30T20:11:34.147Z,99304.22
2022-11-30T20:14:02.025Z,99301.88
2022-11-30T20:16:30.193Z,99303.44
2022-11-30T20:19:03.246Z,99308.75
2022-11-30T20:21:34.538Z,99304.72
2022-11-30T20:24:08.703Z,99314.50
2022-11-30T20:26:43.258Z,99316.44
2022-11-30T20:29:19.154Z,99316.06
2022-11-30T20:31:50.306Z,99319.41
2022-11-30T20:34:18.045Z,99314.19
2022-11-30T20:36:45.763Z,99312.41
2022-11-30T20:39:13.754Z,99315.84
2022-11-30T20:41:42.201Z,99321.63
2022-11-30T20:44:15.635Z,99315.13
2022-11-30T20:46:43.449Z,99319.63
2022-11-30T20:49:21.169Z,99313.91
2022-11-30T20:51:49.391Z,99317.19
2022-11-30T20:54:17.796Z,99327.72
2022-11-30T20:56:48.884Z,99323.59
2022-11-30T20:59:22.172Z,99326.56
2022-11-30T21:01:50.411Z,99327.63
2022-11-30T21:04:18.239Z,99335.22
2022-11-30T21:06:46.066Z,99334.25
2022-11-30T21:09:16.438Z,99332.06
2022-11-30T21:11:45.162Z,99331.31
2022-11-30T21:14:13.585Z,99323.75
2022-11-30T21:16:41.912Z,99327.66
2022-11-30T21:19:11.786Z,99327.59
2022-11-30T21:21:39.539Z,99318.34
2022-11-30T21:24:09.227Z,99329.56
2022-11-30T21:26:40.659Z,99330.66
2022-11-30T21:29:14.574Z,99327.25
2022-11-30T21:31:43.113Z,99321.63
2022-11-30T21:34:11.137Z,99320.06
2022-11-30T21:36:39.126Z,99332.00
2022-11-30T21:39:07.824Z,99330.00
2022-11-30T21:41:38.581Z,99334.63
2022-11-30T21:44:11.275Z,99320.25
2022-11-30T21:47:04.840Z,99337.31
2022-11-30T21:49:32.514Z,99335.41
2022-11-30T21:52:00.076Z,99330.06
2022-11-30T21:54:27.634Z,99332.84
2022-11-30T21:56:55.187Z,99328.06
2022-11-30T21:59:22.990Z,99324.00
2022-11-30T22:01:50.718Z,99323.22
2022-11-30T22:04:18.471Z,99326.75
2022-11-30T22:06:46.322Z,99324.69
2022-11-30T22:09:18.511Z,99326.38
2022-11-30T22:11:46.810Z,99324.00
2022-11-30T22:14:16.820Z,99323.00
2022-11-30T22:16:45.100Z,99323.28
2022-11-30T22:19:12.736Z,99331.28
2022-11-30T22:21:43.042Z,99323.22
2022-11-30T22:24:14.226Z,99325.88
2022-11-30T22:26:44.517Z,99328.34
2022-11-30T22:29:18.361Z,99334.47
2022-11-30T22:31:49.113Z,99332.66
2022-11-30T22:34:17.302Z,99337.75
2022-11-30T22:36:46.040Z,99330.38
2022-11-30T22:39:19.602Z,99330.88
2022-11-30T22:41:54.801Z,99327.50
2022-11-30T22:44:25.466Z,99326.59
2022-11-30T22:46:53.176Z,99322.94
2022-11-30T22:49:22.025Z,99324.63
2022-11-30T22:51:50.259Z,99333.81
2022-11-30T22:54:18.518Z,99334.66
2022-11-30T22:56:46.716Z,99319.97
2022-11-30T22:59:17.991Z,99331.50
2022-11-30T23:01:49.469Z,99322.88
2022-11-30T23:04:20.471Z,99324.31
2022-11-30T23:06:49.667Z,99325.91
2022-11-30T23:09:21.551Z,99324.31
2022-11-30T23:11:50.901Z,99318.97
2022-11-30T23:14:19.300Z,99321.72
2022-11-30T23:16:47.831Z,99324.31
2022-11-30T23:19:15.904Z,99325.31
2022-11-30T23:21:47.104Z,99326.31
2022-11-30T23:24:20.646Z,99328.47
2022-11-30T23:26:48.833Z,99328.00
2022-11-30T23:29:17.805Z,99329.13
2022-11-30T23:31:46.937Z,99324.78
2022-11-30T23:34:19.813Z,99323.56
2022-11-30T23:36:48.993Z,99321.25
2022-11-30T23:39:18.087Z,99323.16
2022-11-30T23:41:45.925Z,99324.09
2022-11-30T23:44:14.047Z,99326.94
2022-11-30T23:46:41.896Z,99314.63
2022-11-30T23:49:09.839Z,99319.72
2022-11-30T23:51:37.465Z,99319.72
2022-11-30T23:54:05.451Z,99323.28
2022-11-30T23:56:33.235Z,99317.66
2022-11-30T23:59:01.226Z,99313.16
